Terminal Aerodrome Forecast
Issued by NWS

Home | Current Version | Previous Version | Text Only | Print | Product List | Glossary On
Versions: 1 2 3 4 5 6 7 8 9 10 11 12 13
481
FTUS45 KGGW 191720
TAFSDY
TAF
KSDY 191720Z 1918/2018 VRB03KT P6SM SCT100
     FM192000 36004KT P6SM OVC035
     FM200100 VRB03KT 3SM -SN OVC030
     FM200500 VRB03KT 2SM -SN BKN012
     FM201400 26005KT P6SM BKN021=

USA.gov is the U.S. government's official web portal to all federal, state and local government web resources and services.